Time;durP1;ratioP1;P1;durP2;ratioP2;P2;SDS_P1;SDS_P2;PMS_P1;PMS_P2;Temp;Humidity;BMP_temperature;BMP_pressure;BME280_temperature;BME280_humidity;BME280_pressure;Samples;Min_cycle;Max_cycle;Signal;HPM_P1;HPM_P2
2023/02/11 12:12:25;;;;;;;;;;;;;;;;;;;;;
2023/02/11 12:45:00;;;;;;;17.50;16.40;;;16.40;57.60;;;;;;5898881;24;20448;-86
2023/02/11 12:47:55;;;;;;;;;;;;;;;;;;;;;
2023/02/11 12:50:40;;;;;;;;;;;;;;;;;;;;;
2023/02/11 12:53:41;;;;;;;17.00;15.73;;;13.00;70.20;;;;;;6089158;23;20401;-87
2023/02/11 12:57:03;;;;;;;;;;;;;;;;;;;;;
2023/02/11 13:02:54;;;;;;;18.00;16.60;;;12.30;82.10;;;;;;6060098;23;20417;-87
2023/02/11 13:05:48;;;;;;;19.23;17.90;;;12.30;83.70;;;;;;6088897;23;20780;-87
2023/02/11 13:08:57;;;;;;;;;;;;;;;;;;;;;
2023/02/11 13:11:39;;;;;;;18.67;17.10;;;12.00;86.60;;;;;;6057279;23;20806;-87
2023/02/11 13:14:22;;;;;;;18.30;16.70;;;12.00;88.00;;;;;;6060145;23;20406;-87
2023/02/11 13:17:24;;;;;;;17.40;16.00;;;12.40;87.60;;;;;;6059845;23;20437;-86
2023/02/11 13:23:13;;;;;;;17.93;16.60;;;12.50;86.70;;;;;;6056351;23;20472;-88
2023/02/11 13:25:50;;;;;;;18.33;16.83;;;12.40;88.00;;;;;;6059686;23;20905;-86
2023/02/11 13:28:41;;;;;;;17.47;16.00;;;12.40;88.50;;;;;;6060012;23;20422;-86
2023/02/11 13:31:19;;;;;;;19.30;17.80;;;12.60;88.60;;;;;;6060245;23;20469;-85
2023/02/11 13:33:53;;;;;;;18.10;16.57;;;12.80;88.30;;;;;;6060528;23;20422;-85
2023/02/11 13:36:34;;;;;;;20.90;19.07;;;12.60;88.50;;;;;;6059434;23;20389;-86
2023/02/11 13:39:04;;;;;;;21.57;19.70;;;12.40;90.30;;;;;;6061917;23;20390;-84
2023/02/11 13:41:36;;;;;;;21.43;19.70;;;12.10;91.20;;;;;;6060134;23;20520;-86
2023/02/11 13:44:25;;;;;;;23.30;21.03;;;11.80;92.30;;;;;;6059959;23;20485;-85
2023/02/11 13:47:02;;;;;;;24.27;22.07;;;11.80;92.70;;;;;;6060133;23;20418;-84
2023/02/11 13:49:39;;;;;;;23.27;21.07;;;11.40;93.90;;;;;;6060409;23;20911;-84
2023/02/11 13:52:26;;;;;;;21.77;19.90;;;11.10;95.50;;;;;;6059912;23;20457;-85
2023/02/11 13:55:12;;;;;;;25.03;22.50;;;11.00;96.00;;;;;;6059776;23;20623;-84
2023/02/11 13:58:18;;;;;;;24.23;21.70;;;11.10;96.40;;;;;;6059890;23;20410;-85
2023/02/11 14:00:49;;;;;;;22.83;20.83;;;11.10;96.40;;;;;;6060403;23;20813;-84
2023/02/11 14:09:17;;;;;;;24.40;22.13;;;10.80;97.60;;;;;;6061248;23;20497;-85
2023/02/11 14:11:47;;;;;;;25.57;22.97;;;10.80;98.10;;;;;;6030353;23;20453;-83
2023/02/11 14:14:22;;;;;;;27.73;24.07;;;10.80;98.30;;;;;;6060124;23;20406;-84
2023/02/11 14:17:34;;;;;;;24.90;22.50;;;10.90;98.00;;;;;;6059219;23;20425;-84
2023/02/11 14:20:04;;;;;;;25.53;22.50;;;10.90;97.90;;;;;;6059952;23;20390;-85
2023/02/11 14:22:40;;;;;;;23.80;21.40;;;10.90;98.10;;;;;;6059315;23;20445;-86
2023/02/11 14:25:18;;;;;;;22.90;20.70;;;10.80;97.80;;;;;;6059710;23;20393;-85
2023/02/11 14:27:54;;;;;;;23.83;21.67;;;10.90;98.00;;;;;;6059963;23;20425;-84
2023/02/11 14:30:28;;;;;;;24.77;22.53;;;11.00;97.90;;;;;;6059645;23;20442;-85
2023/02/11 14:33:40;;;;;;;24.07;21.93;;;10.90;97.80;;;;;;6059875;23;20399;-84
2023/02/11 14:36:19;;;;;;;24.70;22.10;;;11.00;97.90;;;;;;5998479;23;20437;-86
2023/02/11 14:39:00;;;;;;;25.30;22.60;;;11.00;97.80;;;;;;6059940;23;20406;-83
2023/02/11 14:41:29;;;;;;;24.57;22.37;;;10.80;97.70;;;;;;6060165;23;20479;-85
2023/02/11 14:43:59;;;;;;;23.43;21.07;;;10.70;98.10;;;;;;6059981;23;20471;-83
2023/02/11 14:46:28;;;;;;;22.87;20.70;;;10.70;98.20;;;;;;6059803;23;21235;-85
2023/02/11 14:48:59;;;;;;;25.07;22.63;;;10.70;98.20;;;;;;6061935;23;20730;-84
2023/02/11 14:51:30;;;;;;;23.73;21.70;;;10.70;98.20;;;;;;6063964;23;20425;-84
2023/02/11 14:54:01;;;;;;;23.57;21.47;;;10.70;98.20;;;;;;6065423;23;20402;-83
2023/02/11 14:56:30;;;;;;;22.40;20.30;;;10.80;98.30;;;;;;6065222;23;20394;-83
2023/02/11 14:58:57;;;;;;;22.00;20.00;;;10.90;98.00;;;;;;6060777;23;20418;-82
2023/02/11 15:01:31;;;;;;;21.20;19.43;;;11.00;97.30;;;;;;6062080;23;20445;-85
2023/02/11 15:03:59;;;;;;;21.93;20.03;;;11.00;96.90;;;;;;6063475;23;20909;-84
2023/02/11 15:06:31;;;;;;;21.87;19.80;;;11.10;96.70;;;;;;6061993;23;20487;-85
2023/02/11 15:09:02;;;;;;;29.47;21.47;;;11.00;96.40;;;;;;6060980;23;20390;-86
2023/02/11 15:11:31;;;;;;;24.47;22.03;;;10.90;96.80;;;;;;6060252;23;20442;-82
2023/02/11 15:14:06;;;;;;;24.07;21.80;;;10.70;97.70;;;;;;6060795;23;20768;-82
2023/02/11 15:16:34;;;;;;;25.50;23.30;;;10.50;98.20;;;;;;6060357;23;20452;-83
2023/02/11 15:19:04;;;;;;;25.27;23.13;;;10.40;98.30;;;;;;6060371;23;20818;-83
2023/02/11 15:21:34;;;;;;;24.07;21.87;;;10.30;98.50;;;;;;6060043;23;20441;-84
2023/02/11 15:24:04;;;;;;;23.77;21.57;;;10.20;98.50;;;;;;6060718;23;20410;-82
2023/02/11 15:26:32;;;;;;;23.43;21.43;;;10.20;98.50;;;;;;6051121;23;20465;-83
2023/02/11 15:28:59;;;;;;;22.67;20.37;;;10.10;98.70;;;;;;6051545;23;20415;-83
2023/02/11 15:31:28;;;;;;;25.30;22.80;;;10.10;98.80;;;;;;6060693;23;20457;-83
2023/02/11 15:33:55;;;;;;;22.90;20.87;;;9.90;99.60;;;;;;6060660;23;20456;-83
2023/02/11 15:36:27;;;;;;;22.03;20.03;;;9.80;99.80;;;;;;6060355;23;20422;-83
2023/02/11 15:39:17;;;;;;;23.60;21.23;;;9.70;99.90;;;;;;6060617;23;20408;-83
2023/02/11 15:41:44;;;;;;;22.63;20.30;;;9.60;99.90;;;;;;6060866;23;20410;-83
2023/02/11 15:44:27;;;;;;;24.13;21.80;;;9.50;99.90;;;;;;6060700;23;20425;-82
2023/02/11 15:46:53;;;;;;;25.47;22.97;;;9.50;99.90;;;;;;6060527;23;20422;-83
2023/02/11 15:49:22;;;;;;;23.87;21.53;;;9.50;99.90;;;;;;6060033;23;20889;-83
2023/02/11 15:51:49;;;;;;;22.80;21.00;;;9.40;99.90;;;;;;6060331;23;20532;-82
2023/02/11 15:54:20;;;;;;;22.70;20.70;;;9.50;99.90;;;;;;6060618;23;20433;-82
2023/02/11 15:56:50;;;;;;;24.07;21.70;;;9.40;99.90;;;;;;6058208;23;20400;-83
2023/02/11 15:59:19;;;;;;;21.03;19.23;;;9.40;99.90;;;;;;6057953;23;20758;-83
2023/02/11 16:01:47;;;;;;;24.00;21.80;;;9.40;99.90;;;;;;6060631;23;20449;-83
2023/02/11 16:04:17;;;;;;;22.57;20.40;;;9.30;99.90;;;;;;6060844;23;20468;-83
2023/02/11 16:06:46;;;;;;;21.00;19.30;;;9.20;99.90;;;;;;6060669;23;20434;-82
2023/02/11 16:09:31;;;;;;;25.00;21.70;;;9.10;99.90;;;;;;6060399;23;20414;-82
2023/02/11 16:12:02;;;;;;;22.43;20.33;;;9.10;99.90;;;;;;6057558;23;20484;-81
2023/02/11 16:14:32;;;;;;;24.57;22.23;;;9.10;99.90;;;;;;6060748;23;20460;-81
2023/02/11 16:17:01;;;;;;;24.37;21.97;;;9.10;99.90;;;;;;6060707;23;20449;-82
2023/02/11 16:19:29;;;;;;;23.60;21.10;;;9.10;99.90;;;;;;6058465;23;20464;-82
2023/02/11 16:21:59;;;;;;;23.00;20.90;;;9.10;99.90;;;;;;6060352;23;20410;-83
2023/02/11 16:24:30;;;;;;;24.07;21.73;;;9.10;99.90;;;;;;6060910;23;20413;-82
2023/02/11 16:26:59;;;;;;;24.20;21.80;;;9.00;99.90;;;;;;6061837;23;20457;-82
2023/02/11 16:29:27;;;;;;;23.80;21.60;;;9.00;99.90;;;;;;6060312;23;20422;-82
2023/02/11 16:32:05;;;;;;;24.03;21.73;;;9.00;99.90;;;;;;6060428;23;20775;-82
2023/02/11 16:34:31;;;;;;;23.53;21.23;;;9.00;99.90;;;;;;6060801;23;20437;-81
2023/02/11 16:36:58;;;;;;;25.40;23.00;;;9.00;99.90;;;;;;6060723;23;20418;-82
2023/02/11 16:39:25;;;;;;;26.87;24.37;;;9.00;99.90;;;;;;6060838;23;20709;-82
2023/02/11 16:41:53;;;;;;;26.57;23.47;;;9.00;99.90;;;;;;6059768;23;20664;-82
2023/02/11 16:44:20;;;;;;;27.67;24.70;;;9.00;99.90;;;;;;6060039;23;20933;-81
2023/02/11 16:46:47;;;;;;;26.23;23.40;;;9.00;99.90;;;;;;6060437;23;20413;-82
2023/02/11 16:49:20;;;;;;;25.57;23.03;;;9.00;99.90;;;;;;6060616;23;20410;-81
2023/02/11 16:51:49;;;;;;;28.40;23.60;;;8.90;99.90;;;;;;6060170;23;20437;-82
2023/02/11 16:54:17;;;;;;;25.27;22.70;;;8.90;99.90;;;;;;6060388;23;20448;-82
2023/02/11 16:56:44;;;;;;;27.33;24.47;;;8.90;99.90;;;;;;6060374;23;20890;-82
2023/02/11 16:59:12;;;;;;;27.93;24.87;;;8.90;99.90;;;;;;6059760;23;20893;-82
2023/02/11 17:01:41;;;;;;;27.20;24.53;;;9.00;99.90;;;;;;6060085;23;20406;-82
2023/02/11 17:04:15;;;;;;;27.13;24.53;;;8.90;99.90;;;;;;6059949;23;20418;-82
2023/02/11 17:06:42;;;;;;;26.60;23.80;;;9.00;99.90;;;;;;6060298;23;20440;-82
2023/02/11 17:09:10;;;;;;;29.03;24.63;;;8.90;99.90;;;;;;6059426;23;20730;-82
2023/02/11 17:11:37;;;;;;;29.47;26.67;;;8.90;99.90;;;;;;6058456;23;20485;-82
2023/02/11 17:14:04;;;;;;;27.87;25.27;;;8.90;99.90;;;;;;6058383;23;20413;-82
2023/02/11 17:16:32;;;;;;;29.50;26.60;;;8.80;99.90;;;;;;6058938;23;20418;-83
2023/02/11 17:18:58;;;;;;;28.50;25.83;;;8.70;99.90;;;;;;6058921;23;20480;-83
2023/02/11 17:21:25;;;;;;;30.50;27.40;;;8.80;99.90;;;;;;6057970;23;20464;-83
2023/02/11 17:23:52;;;;;;;38.37;33.07;;;8.80;99.90;;;;;;6056352;23;20189;-82
2023/02/11 17:26:19;;;;;;;32.47;29.07;;;8.80;99.90;;;;;;6058197;23;20435;-83
2023/02/11 17:28:46;;;;;;;34.83;31.20;;;8.70;99.90;;;;;;6058425;23;20409;-83
2023/02/11 17:31:13;;;;;;;35.70;31.90;;;8.70;99.90;;;;;;6058070;23;20919;-82
2023/02/11 17:33:41;;;;;;;31.83;28.67;;;8.80;99.90;;;;;;6058192;23;20480;-82
2023/02/11 17:36:09;;;;;;;32.13;29.13;;;8.90;99.90;;;;;;6057857;23;20901;-82
2023/02/11 17:38:37;;;;;;;33.00;29.60;;;8.80;99.90;;;;;;6058268;23;20491;-82
2023/02/11 17:41:05;;;;;;;32.30;28.50;;;8.90;99.90;;;;;;6058115;23;20484;-82
2023/02/11 17:43:32;;;;;;;29.37;26.57;;;8.90;99.90;;;;;;6057808;23;20925;-82
2023/02/11 17:45:58;;;;;;;31.67;28.67;;;8.80;99.90;;;;;;6058124;23;20446;-81
2023/02/11 17:48:25;;;;;;;31.47;28.50;;;8.70;99.90;;;;;;6058853;23;20505;-82
2023/02/11 17:50:53;;;;;;;28.20;25.30;;;8.80;99.90;;;;;;6057993;23;20422;-82
2023/02/11 17:53:20;;;;;;;30.63;27.60;;;8.80;99.90;;;;;;6057825;23;20454;-82
2023/02/11 17:55:46;;;;;;;29.00;25.90;;;8.90;99.90;;;;;;6058529;23;20414;-81
2023/02/11 17:58:14;;;;;;;28.70;25.87;;;8.90;99.90;;;;;;6058479;23;20425;-82
